Time;durP1;ratioP1;P1;durP2;ratioP2;P2;SDS_P1;SDS_P2;PMS_P1;PMS_P2;Temp;Humidity;BMP_temperature;BMP_pressure;BME280_temperature;BME280_humidity;BME280_pressure;Samples;Min_cycle;Max_cycle;Signal;HPM_P1;HPM_P2
2022/10/13 00:01:09;;;;;;;8.68;3.47;;;;;;;;;;5093409;28;20492;-69
2022/10/13 00:03:35;;;;;;;9.63;3.50;;;;;;;;;;5091520;28;20142;-71
2022/10/13 00:06:04;;;;;;;7.97;3.40;;;;;;;;;;5074948;28;20123;-71
2022/10/13 00:08:29;;;;;;;10.43;3.55;;;;;;;;;;5091760;28;20111;-72
2022/10/13 00:10:55;;;;;;;11.32;3.88;;;;;;;;;;5073526;28;20131;-72
2022/10/13 00:13:22;;;;;;;11.30;3.75;;;;;;;;;;5089609;28;20058;-73
2022/10/13 00:15:48;;;;;;;10.02;3.92;;;;;;;;;;5072457;28;20028;-71
2022/10/13 00:18:14;;;;;;;8.32;3.63;;;;;;;;;;5089677;28;20318;-72
2022/10/13 00:20:41;;;;;;;7.50;3.38;;;;;;;;;;5072930;28;20036;-73
2022/10/13 00:23:07;;;;;;;10.18;3.53;;;;;;;;;;5073008;28;20032;-74
2022/10/13 00:25:33;;;;;;;8.38;3.70;;;;;;;;;;5089516;28;20035;-71
2022/10/13 00:27:59;;;;;;;10.00;3.85;;;;;;;;;;5074416;28;20028;-71
2022/10/13 00:30:34;;;;;;;10.80;3.28;;;;;;;;;;5075554;28;20377;-72
2022/10/13 00:33:00;;;;;;;6.78;3.78;;;;;;;;;;5074344;28;20071;-72
2022/10/13 00:35:25;;;;;;;6.43;3.22;;;;;;;;;;5074505;28;20082;-72
2022/10/13 00:37:52;;;;;;;5.85;3.35;;;;;;;;;;5074804;28;20064;-73
2022/10/13 00:40:18;;;;;;;6.82;3.35;;;;;;;;;;5074613;28;20036;-73
2022/10/13 00:42:43;;;;;;;6.75;3.13;;;;;;;;;;5074762;28;20062;-72
2022/10/13 00:45:09;;;;;;;8.20;3.28;;;;;;;;;;5075375;28;20055;-72
2022/10/13 00:47:44;;;;;;;12.07;3.20;;;;;;;;;;5075528;28;20607;-72
2022/10/13 00:50:13;;;;;;;7.85;3.40;;;;;;;;;;5075610;28;20042;-72
2022/10/13 00:52:40;;;;;;;6.63;3.40;;;;;;;;;;5078332;28;20525;-71
2022/10/13 00:55:07;;;;;;;7.65;3.17;;;;;;;;;;5078073;28;20451;-72
2022/10/13 00:57:32;;;;;;;6.55;3.42;;;;;;;;;;5076926;28;20040;-72
2022/10/13 00:59:59;;;;;;;7.68;3.50;;;;;;;;;;5074964;28;20039;-73
2022/10/13 01:02:27;;;;;;;9.80;4.00;;;;;;;;;;5074471;28;20131;-72
2022/10/13 01:04:53;;;;;;;8.77;3.42;;;;;;;;;;5074424;28;20028;-72
2022/10/13 01:07:19;;;;;;;7.97;3.65;;;;;;;;;;5074325;28;20043;-72
2022/10/13 01:09:46;;;;;;;6.32;2.80;;;;;;;;;;5074407;28;20046;-73
2022/10/13 01:12:30;;;;;;;6.60;3.45;;;;;;;;;;5075090;28;20360;-73
2022/10/13 01:15:07;;;;;;;12.30;3.47;;;;;;;;;;5076320;28;20052;-72
2022/10/13 01:17:43;;;;;;;7.30;3.15;;;;;;;;;;5078671;28;20465;-73
2022/10/13 01:20:21;;;;;;;11.32;3.92;;;;;;;;;;5096002;28;20039;-72
2022/10/13 01:22:55;;;;;;;11.07;3.78;;;;;;;;;;5078776;28;20032;-72
2022/10/13 01:25:36;;;;;;;6.32;3.38;;;;;;;;;;5079262;28;20035;-71
2022/10/13 01:28:11;;;;;;;4.80;2.88;;;;;;;;;;5078383;28;20118;-72
2022/10/13 01:30:42;;;;;;;8.43;3.15;;;;;;;;;;5077875;28;20041;-71
2022/10/13 01:33:07;;;;;;;;;;;;;;;;;;5078243;28;20504;-73
2022/10/13 01:35:52;;;;;;;8.30;3.22;;;;;;;;;;5078311;28;19911;-72
2022/10/13 01:38:41;;;;;;;6.32;3.30;;;;;;;;;;5077892;28;20040;-71
2022/10/13 01:41:18;;;;;;;8.30;3.30;;;;;;;;;;5050113;28;20126;-71
2022/10/13 01:43:47;;;;;;;13.18;4.07;;;;;;;;;;5078047;28;20360;-71
2022/10/13 01:46:16;;;;;;;6.07;3.25;;;;;;;;;;5095236;28;20059;-71
2022/10/13 01:48:43;;;;;;;5.57;3.20;;;;;;;;;;5077930;28;20031;-73
2022/10/13 01:51:11;;;;;;;10.15;3.60;;;;;;;;;;5077574;28;20031;-72
2022/10/13 01:53:37;;;;;;;6.03;3.55;;;;;;;;;;5094719;28;20071;-71
2022/10/13 01:56:03;;;;;;;6.80;3.17;;;;;;;;;;5077776;28;20374;-72
2022/10/13 01:58:31;;;;;;;9.65;3.38;;;;;;;;;;5077571;28;20043;-72
2022/10/13 02:01:02;;;;;;;8.00;3.35;;;;;;;;;;5096215;28;20036;-71
2022/10/13 02:03:47;;;;;;;9.98;3.67;;;;;;;;;;5096152;28;20032;-72
2022/10/13 02:06:32;;;;;;;6.45;3.50;;;;;;;;;;5021780;28;20139;-71
2022/10/13 02:09:07;;;;;;;8.07;3.50;;;;;;;;;;5095453;28;20056;-71
2022/10/13 02:11:33;;;;;;;5.22;3.47;;;;;;;;;;5093396;28;20032;-72
2022/10/13 02:14:05;;;;;;;9.30;3.50;;;;;;;;;;5059753;28;20105;-72
2022/10/13 02:16:52;;;;;;;9.18;3.72;;;;;;;;;;5079258;28;20138;-73
2022/10/13 02:19:19;;;;;;;10.90;4.20;;;;;;;;;;5094242;28;20039;-75
2022/10/13 02:21:45;;;;;;;7.20;4.00;;;;;;;;;;5092773;28;20135;-72
2022/10/13 02:24:11;;;;;;;8.63;3.65;;;;;;;;;;5109299;28;20093;-73
2022/10/13 02:26:37;;;;;;;7.88;3.97;;;;;;;;;;5057803;28;20024;-71
2022/10/13 02:29:13;;;;;;;7.32;3.63;;;;;;;;;;5092393;28;20032;-72
2022/10/13 02:31:39;;;;;;;8.63;3.78;;;;;;;;;;5092120;28;20386;-71
2022/10/13 02:34:05;;;;;;;9.90;4.03;;;;;;;;;;5092135;28;20395;-72
2022/10/13 02:36:31;;;;;;;8.25;4.00;;;;;;;;;;5059431;28;20237;-71
2022/10/13 02:38:56;;;;;;;12.20;4.10;;;;;;;;;;5094723;28;20051;-72
2022/10/13 02:41:22;;;;;;;14.30;4.13;;;;;;;;;;5076617;28;20066;-72
2022/10/13 02:43:47;;;;;;;15.43;4.38;;;;;;;;;;5079391;28;20123;-72
2022/10/13 02:46:13;;;;;;;10.13;4.78;;;;;;;;;;5115499;28;20035;-73
2022/10/13 02:48:39;;;;;;;10.77;3.95;;;;;;;;;;5064583;28;20035;-72
2022/10/13 02:51:05;;;;;;;10.30;4.43;;;;;;;;;;5114331;28;20036;-72
2022/10/13 02:53:30;;;;;;;5.78;4.07;;;;;;;;;;5062769;28;20339;-72
2022/10/13 02:55:56;;;;;;;7.50;4.22;;;;;;;;;;5077233;28;20046;-74
2022/10/13 02:58:24;;;;;;;9.02;4.22;;;;;;;;;;5093375;28;20417;-72
2022/10/13 03:00:49;;;;;;;11.88;4.85;;;;;;;;;;5060220;28;20050;-74
2022/10/13 03:03:16;;;;;;;10.20;4.47;;;;;;;;;;5060312;28;20388;-72
2022/10/13 03:05:44;;;;;;;7.97;4.70;;;;;;;;;;5076302;28;20044;-71
2022/10/13 03:08:10;;;;;;;9.40;4.75;;;;;;;;;;5076068;28;20117;-70
2022/10/13 03:10:36;;;;;;;11.75;4.78;;;;;;;;;;5075839;28;20052;-70
2022/10/13 03:13:02;;;;;;;11.45;4.85;;;;;;;;;;5092462;28;20066;-70
2022/10/13 03:15:27;;;;;;;16.92;5.40;;;;;;;;;;5093373;28;20053;-71
2022/10/13 03:17:56;;;;;;;8.57;4.22;;;;;;;;;;5081351;28;20170;-71
2022/10/13 03:20:22;;;;;;;9.57;4.57;;;;;;;;;;5096410;28;20462;-71
2022/10/13 03:22:47;;;;;;;12.60;4.85;;;;;;;;;;5095917;28;20036;-71
2022/10/13 03:25:13;;;;;;;9.82;4.95;;;;;;;;;;5095848;28;20127;-73
2022/10/13 03:27:40;;;;;;;9.32;5.50;;;;;;;;;;5095598;28;20032;-72
2022/10/13 03:30:06;;;;;;;12.70;5.70;;;;;;;;;;5075491;28;20122;-74
2022/10/13 03:32:34;;;;;;;10.73;5.68;;;;;;;;;;5092640;28;20051;-74
2022/10/13 03:34:59;;;;;;;10.65;6.00;;;;;;;;;;5093355;28;20028;-74
2022/10/13 03:37:27;;;;;;;12.98;6.18;;;;;;;;;;5058948;28;20028;-72
2022/10/13 03:39:55;;;;;;;18.27;11.15;;;;;;;;;;5093325;28;20058;-72
2022/10/13 03:42:21;;;;;;;24.58;13.43;;;;;;;;;;5076764;28;20055;-73
2022/10/13 03:44:48;;;;;;;15.63;6.97;;;;;;;;;;5077068;28;20032;-73
2022/10/13 03:47:13;;;;;;;13.52;6.60;;;;;;;;;;5109414;28;20820;-73
2022/10/13 03:49:39;;;;;;;14.23;6.70;;;;;;;;;;5058850;28;20032;-73
2022/10/13 03:52:06;;;;;;;13.73;7.40;;;;;;;;;;5075867;28;20121;-71
2022/10/13 03:54:39;;;;;;;17.27;7.50;;;;;;;;;;5059631;28;20020;-70
2022/10/13 03:57:07;;;;;;;12.43;7.03;;;;;;;;;;5108472;28;20048;-71
2022/10/13 03:59:32;;;;;;;16.48;7.30;;;;;;;;;;5058347;28;20032;-71
2022/10/13 04:01:58;;;;;;;11.95;7.45;;;;;;;;;;5091004;28;20043;-72
2022/10/13 04:04:24;;;;;;;12.93;7.53;;;;;;;;;;5074754;28;20378;-74
2022/10/13 04:06:55;;;;;;;13.60;6.60;;;;;;;;;;5091771;28;20127;-71
2022/10/13 04:09:20;;;;;;;10.15;6.57;;;;;;;;;;5058200;28;20146;-70
2022/10/13 04:11:48;;;;;;;17.27;6.68;;;;;;;;;;5091290;28;20043;-70
2022/10/13 04:14:13;;;;;;;9.98;5.60;;;;;;;;;;5091368;28;20052;-69
2022/10/13 04:16:39;;;;;;;11.18;5.68;;;;;;;;;;5091026;28;20028;-69
2022/10/13 04:19:05;;;;;;;13.82;6.53;;;;;;;;;;5074051;28;20039;-71
2022/10/13 04:21:32;;;;;;;12.93;6.00;;;;;;;;;;5107833;28;20526;-70
2022/10/13 04:23:58;;;;;;;14.32;5.97;;;;;;;;;;5074189;28;20023;-70
2022/10/13 04:26:25;;;;;;;12.20;5.97;;;;;;;;;;5090951;28;20125;-70
2022/10/13 04:28:51;;;;;;;11.95;6.05;;;;;;;;;;5091162;28;20032;-70
2022/10/13 04:31:17;;;;;;;15.80;6.60;;;;;;;;;;5101719;28;20028;-71
2022/10/13 04:33:43;;;;;;;14.43;5.97;;;;;;;;;;5073668;28;20039;-71
2022/10/13 04:36:10;;;;;;;12.88;6.70;;;;;;;;;;5092830;28;20046;-70
2022/10/13 04:38:36;;;;;;;12.32;6.18;;;;;;;;;;5071490;28;20393;-69
2022/10/13 04:41:02;;;;;;;15.23;6.53;;;;;;;;;;5041249;28;20028;-75
2022/10/13 04:43:29;;;;;;;14.13;6.00;;;;;;;;;;5083041;28;20382;-72
2022/10/13 04:46:02;;;;;;;10.98;5.63;;;;;;;;;;5081108;28;20139;-66
2022/10/13 04:48:28;;;;;;;10.15;5.50;;;;;;;;;;5054357;28;20043;-73
2022/10/13 04:50:57;;;;;;;10.20;5.40;;;;;;;;;;5040553;28;20119;-77
2022/10/13 04:53:23;;;;;;;13.05;5.93;;;;;;;;;;5037995;28;20040;-72
2022/10/13 04:55:48;;;;;;;11.02;5.93;;;;;;;;;;5070667;28;20494;-72
2022/10/13 04:58:14;;;;;;;11.90;5.63;;;;;;;;;;5056075;28;20123;-73
2022/10/13 05:00:44;;;;;;;14.77;6.43;;;;;;;;;;5073855;28;20123;-76
2022/10/13 05:03:09;;;;;;;11.73;6.00;;;;;;;;;;5079661;28;20327;-77
2022/10/13 05:05:35;;;;;;;9.13;5.32;;;;;;;;;;5072844;28;20043;-77
2022/10/13 05:08:01;;;;;;;15.13;6.43;;;;;;;;;;5045968;28;20040;-71
2022/10/13 05:10:27;;;;;;;12.60;6.47;;;;;;;;;;5073177;28;20062;-72
2022/10/13 05:12:52;;;;;;;18.10;5.53;;;;;;;;;;5091254;28;20059;-73
2022/10/13 05:15:18;;;;;;;13.95;6.85;;;;;;;;;;5060449;28;20032;-77
2022/10/13 05:17:44;;;;;;;17.65;7.05;;;;;;;;;;5068756;28;20449;-76
2022/10/13 05:20:12;;;;;;;9.75;5.45;;;;;;;;;;5105168;28;20047;-76
2022/10/13 05:22:38;;;;;;;21.50;6.25;;;;;;;;;;5054527;28;20044;-74
2022/10/13 05:25:03;;;;;;;14.95;5.90;;;;;;;;;;5063763;28;20506;-77
2022/10/13 05:27:29;;;;;;;13.02;6.00;;;;;;;;;;5052839;28;20132;-77
2022/10/13 05:29:55;;;;;;;10.57;5.30;;;;;;;;;;5063795;28;20055;-78
2022/10/13 05:32:23;;;;;;;10.82;5.28;;;;;;;;;;5071814;28;20458;-75
2022/10/13 05:34:49;;;;;;;10.75;5.20;;;;;;;;;;5080594;28;20043;-73
2022/10/13 05:37:16;;;;;;;9.70;5.35;;;;;;;;;;5063834;28;20024;-74
2022/10/13 05:39:53;;;;;;;11.27;5.32;;;;;;;;;;5084581;28;20036;-75
2022/10/13 05:42:22;;;;;;;13.98;6.03;;;;;;;;;;5088420;28;20043;-75
2022/10/13 05:44:50;;;;;;;14.23;5.68;;;;;;;;;;5062029;28;20037;-76
2022/10/13 05:47:15;;;;;;;12.75;5.15;;;;;;;;;;5071734;28;20936;-75
2022/10/13 05:49:43;;;;;;;20.95;5.00;;;;;;;;;;5053316;28;20104;-74
2022/10/13 05:52:10;;;;;;;11.73;5.00;;;;;;;;;;5073546;28;20062;-77
2022/10/13 05:54:41;;;;;;;8.25;4.88;;;;;;;;;;5055876;28;20037;-73
2022/10/13 05:57:07;;;;;;;9.75;5.25;;;;;;;;;;5080604;28;20104;-72
2022/10/13 05:59:35;;;;;;;10.00;5.05;;;;;;;;;;5070203;28;20085;-76
2022/10/13 06:02:01;;;;;;;15.00;5.70;;;;;;;;;;5081533;28;20031;-72
2022/10/13 06:04:31;;;;;;;13.57;5.88;;;;;;;;;;5083498;28;20032;-70
2022/10/13 06:06:57;;;;;;;12.02;5.95;;;;;;;;;;5068623;28;20032;-73
2022/10/13 06:09:23;;;;;;;15.25;7.20;;;;;;;;;;5074036;28;20093;-75
2022/10/13 06:11:48;;;;;;;12.00;6.57;;;;;;;;;;5082656;28;20036;-73
2022/10/13 06:14:14;;;;;;;16.50;6.68;;;;;;;;;;5058234;28;20448;-74
2022/10/13 06:16:40;;;;;;;14.55;6.40;;;;;;;;;;5059111;28;20032;-71
2022/10/13 06:19:07;;;;;;;9.68;6.50;;;;;;;;;;5075612;28;20028;-73
2022/10/13 06:21:35;;;;;;;13.38;6.38;;;;;;;;;;5109460;28;20115;-75
2022/10/13 06:24:01;;;;;;;11.43;6.50;;;;;;;;;;5058894;28;20032;-75
2022/10/13 06:26:27;;;;;;;13.18;7.57;;;;;;;;;;5091912;28;20738;-75
2022/10/13 06:28:52;;;;;;;15.73;6.82;;;;;;;;;;5059184;28;20043;-76
2022/10/13 06:31:21;;;;;;;16.30;7.18;;;;;;;;;;5091114;28;20036;-74
2022/10/13 06:33:47;;;;;;;12.25;6.75;;;;;;;;;;5058061;28;20155;-75
2022/10/13 06:36:14;;;;;;;11.70;6.90;;;;;;;;;;5091787;28;20074;-75
2022/10/13 06:38:40;;;;;;;17.05;6.53;;;;;;;;;;5057962;28;20124;-74
2022/10/13 06:41:06;;;;;;;10.90;6.78;;;;;;;;;;5091135;28;20130;-74
2022/10/13 06:43:35;;;;;;;13.60;6.43;;;;;;;;;;5108180;28;20028;-74
2022/10/13 06:46:02;;;;;;;15.75;6.53;;;;;;;;;;5096252;28;20072;-74
2022/10/13 06:48:28;;;;;;;13.77;6.70;;;;;;;;;;5038337;28;20075;-73
2022/10/13 06:50:54;;;;;;;14.98;5.82;;;;;;;;;;5072616;28;20059;-75
2022/10/13 06:53:20;;;;;;;11.98;6.10;;;;;;;;;;5082861;28;20466;-74
2022/10/13 06:55:45;;;;;;;12.32;5.68;;;;;;;;;;5074643;28;20040;-74
2022/10/13 06:58:11;;;;;;;14.57;7.07;;;;;;;;;;5057528;28;20060;-73
2022/10/13 07:00:39;;;;;;;18.00;6.30;;;;;;;;;;5090545;28;20105;-74
2022/10/13 07:03:05;;;;;;;14.60;5.35;;;;;;;;;;5058184;28;20088;-73
2022/10/13 07:05:34;;;;;;;17.90;6.03;;;;;;;;;;5056596;28;20473;-73
2022/10/13 07:07:59;;;;;;;13.63;5.65;;;;;;;;;;5057262;28;20101;-73
2022/10/13 07:10:25;;;;;;;18.75;5.60;;;;;;;;;;5090702;28;20531;-74
2022/10/13 07:12:50;;;;;;;14.25;5.68;;;;;;;;;;5071074;28;20036;-71
2022/10/13 07:15:16;;;;;;;11.77;5.43;;;;;;;;;;5067944;28;20044;-74
2022/10/13 07:17:42;;;;;;;16.60;5.53;;;;;;;;;;5074726;28;20089;-74
2022/10/13 07:20:08;;;;;;;12.25;4.53;;;;;;;;;;5052852;28;20075;-74
2022/10/13 07:22:34;;;;;;;16.25;4.90;;;;;;;;;;5052256;28;20025;-75
2022/10/13 07:25:01;;;;;;;9.20;5.07;;;;;;;;;;5068034;28;20051;-75
2022/10/13 07:27:28;;;;;;;10.10;4.88;;;;;;;;;;5084304;28;20028;-75
2022/10/13 07:29:54;;;;;;;16.65;5.20;;;;;;;;;;5068941;28;20127;-75
2022/10/13 07:32:20;;;;;;;12.80;5.15;;;;;;;;;;5067419;28;20130;-74
2022/10/13 07:34:45;;;;;;;12.30;5.07;;;;;;;;;;5067595;28;20036;-74
2022/10/13 07:37:11;;;;;;;9.50;4.90;;;;;;;;;;5053919;28;20530;-74
2022/10/13 07:39:37;;;;;;;14.93;5.15;;;;;;;;;;5054388;28;20423;-75
2022/10/13 07:42:03;;;;;;;8.60;4.93;;;;;;;;;;5072647;28;20495;-74
2022/10/13 07:44:29;;;;;;;9.32;4.50;;;;;;;;;;5071000;28;20134;-75
2022/10/13 07:46:55;;;;;;;13.48;4.93;;;;;;;;;;5072319;28;20036;-75
2022/10/13 07:49:21;;;;;;;9.60;5.25;;;;;;;;;;5071600;28;20029;-72
2022/10/13 07:51:47;;;;;;;16.48;6.78;;;;;;;;;;5071554;28;20040;-74
2022/10/13 07:54:17;;;;;;;14.13;4.68;;;;;;;;;;5072450;28;20386;-74
2022/10/13 07:56:43;;;;;;;10.70;4.47;;;;;;;;;;5055305;28;20058;-74
2022/10/13 07:59:09;;;;;;;10.38;4.85;;;;;;;;;;5071021;28;20458;-74
2022/10/13 08:01:35;;;;;;;17.38;5.45;;;;;;;;;;5087599;28;20094;-74
2022/10/13 08:04:01;;;;;;;14.38;5.57;;;;;;;;;;5071149;28;20354;-74
2022/10/13 08:06:26;;;;;;;12.63;5.72;;;;;;;;;;5076810;28;20028;-74
2022/10/13 08:08:53;;;;;;;9.88;4.53;;;;;;;;;;5091188;28;20097;-73
2022/10/13 08:11:19;;;;;;;10.48;4.43;;;;;;;;;;5058239;28;20385;-74
2022/10/13 08:13:48;;;;;;;9.27;4.40;;;;;;;;;;5107369;28;20040;-74
2022/10/13 08:16:19;;;;;;;9.90;4.50;;;;;;;;;;5091059;28;20024;-73
2022/10/13 08:18:46;;;;;;;8.40;4.20;;;;;;;;;;5074258;28;20151;-75
2022/10/13 08:21:13;;;;;;;9.73;4.10;;;;;;;;;;5108401;28;20032;-73
2022/10/13 08:23:39;;;;;;;7.55;3.47;;;;;;;;;;5091072;28;20032;-74
2022/10/13 08:26:04;;;;;;;13.13;4.28;;;;;;;;;;5107649;28;20047;-74
2022/10/13 08:28:31;;;;;;;8.73;3.55;;;;;;;;;;5090508;28;20434;-74
2022/10/13 08:30:56;;;;;;;11.43;3.80;;;;;;;;;;5073956;28;20104;-74
2022/10/13 08:33:23;;;;;;;9.32;3.53;;;;;;;;;;5090458;28;20523;-75
2022/10/13 08:35:49;;;;;;;11.63;3.10;;;;;;;;;;5091962;28;20374;-74
2022/10/13 08:38:15;;;;;;;9.93;3.50;;;;;;;;;;5090772;28;20047;-73
2022/10/13 08:40:45;;;;;;;10.00;3.88;;;;;;;;;;5073876;28;20028;-74
2022/10/13 08:43:12;;;;;;;6.13;3.35;;;;;;;;;;5106978;28;20067;-72
2022/10/13 08:45:39;;;;;;;9.95;3.55;;;;;;;;;;5072942;28;20052;-75
2022/10/13 08:48:09;;;;;;;12.50;3.80;;;;;;;;;;5107315;28;20265;-74
2022/10/13 08:50:37;;;;;;;6.65;3.67;;;;;;;;;;5090177;28;20139;-76
2022/10/13 08:53:10;;;;;;;7.78;3.65;;;;;;;;;;5073932;28;20506;-75
2022/10/13 08:55:41;;;;;;;6.32;3.33;;;;;;;;;;5074115;28;20433;-75
2022/10/13 08:58:21;;;;;;;15.73;3.42;;;;;;;;;;5090383;28;20123;-75
2022/10/13 09:00:50;;;;;;;8.77;3.28;;;;;;;;;;5073363;28;20488;-76
2022/10/13 09:03:16;;;;;;;8.73;3.80;;;;;;;;;;5071537;28;20028;-76
2022/10/13 09:05:44;;;;;;;8.85;3.38;;;;;;;;;;5047213;28;20564;-75
2022/10/13 09:08:13;;;;;;;9.52;3.83;;;;;;;;;;5047054;28;20028;-75
2022/10/13 09:10:46;;;;;;;15.02;3.33;;;;;;;;;;5063898;28;20036;-75
2022/10/13 09:13:16;;;;;;;10.00;3.58;;;;;;;;;;5050761;28;20044;-75
2022/10/13 09:15:42;;;;;;;9.27;4.00;;;;;;;;;;5074757;28;20028;-76
2022/10/13 09:18:11;;;;;;;9.80;3.47;;;;;;;;;;5064071;28;20123;-76
2022/10/13 09:20:38;;;;;;;8.70;3.75;;;;;;;;;;5042132;28;20032;-74
2022/10/13 09:23:04;;;;;;;8.18;3.90;;;;;;;;;;5063537;28;20028;-76
2022/10/13 09:25:38;;;;;;;6.60;3.25;;;;;;;;;;5046819;28;20418;-75
2022/10/13 09:28:10;;;;;;;6.22;2.90;;;;;;;;;;5078683;28;20025;-75
2022/10/13 09:30:40;;;;;;;6.53;2.90;;;;;;;;;;5093764;28;20370;-78
2022/10/13 09:33:12;;;;;;;6.97;2.88;;;;;;;;;;5079239;28;20063;-73
2022/10/13 09:35:39;;;;;;;3.95;2.50;;;;;;;;;;5072560;28;20043;-72
2022/10/13 09:38:08;;;;;;;7.78;2.75;;;;;;;;;;5085580;28;20056;-73
2022/10/13 09:40:34;;;;;;;4.60;2.50;;;;;;;;;;5067653;28;20036;-73
2022/10/13 09:43:00;;;;;;;5.13;2.33;;;;;;;;;;5084149;28;20078;-73
2022/10/13 09:45:26;;;;;;;5.80;2.40;;;;;;;;;;5100609;28;20066;-73
2022/10/13 09:47:53;;;;;;;4.60;2.25;;;;;;;;;;5085662;28;20023;-73
2022/10/13 09:50:21;;;;;;;5.10;2.55;;;;;;;;;;5051325;28;20429;-73
2022/10/13 09:52:47;;;;;;;4.25;2.65;;;;;;;;;;5083806;28;20049;-74
2022/10/13 09:55:25;;;;;;;5.40;2.40;;;;;;;;;;5067846;28;20393;-74
2022/10/13 09:57:52;;;;;;;4.70;2.45;;;;;;;;;;5068866;28;20536;-74
2022/10/13 10:00:24;;;;;;;6.38;1.95;;;;;;;;;;5100006;28;20024;-74
2022/10/13 10:02:56;;;;;;;7.65;2.03;;;;;;;;;;5066176;28;20097;-74
2022/10/13 10:05:24;;;;;;;7.05;2.13;;;;;;;;;;5100295;28;20122;-74
2022/10/13 10:08:01;;;;;;;3.05;2.08;;;;;;;;;;5086390;28;20034;-74
2022/10/13 10:10:33;;;;;;;3.42;2.35;;;;;;;;;;5080534;28;20032;-72
2022/10/13 10:13:01;;;;;;;3.10;2.40;;;;;;;;;;5039149;28;20047;-74
2022/10/13 10:15:48;;;;;;;5.18;2.40;;;;;;;;;;5055988;28;20767;-74
2022/10/13 10:18:20;;;;;;;6.07;2.40;;;;;;;;;;5055344;28;20059;-72
2022/10/13 10:20:49;;;;;;;3.90;2.40;;;;;;;;;;5055191;28;20036;-73
2022/10/13 10:23:27;;;;;;;4.70;2.05;;;;;;;;;;5055381;28;20067;-72
2022/10/13 10:25:58;;;;;;;5.15;2.42;;;;;;;;;;5039322;28;20033;-75
2022/10/13 10:28:23;;;;;;;;;;;;;;;;;;5055716;28;20036;-74
2022/10/13 10:30:52;;;;;;;5.50;2.35;;;;;;;;;;5036592;28;20012;-73
2022/10/13 10:33:22;;;;;;;7.32;2.38;;;;;;;;;;5069269;28;20478;-74
2022/10/13 10:35:50;;;;;;;7.38;2.88;;;;;;;;;;5053249;28;20470;-76
2022/10/13 10:38:29;;;;;;;7.30;2.13;;;;;;;;;;5036453;28;20032;-74
2022/10/13 10:41:03;;;;;;;5.20;2.50;;;;;;;;;;5069898;28;20029;-75
2022/10/13 10:43:35;;;;;;;4.85;2.25;;;;;;;;;;5070324;28;20102;-72
2022/10/13 10:46:01;;;;;;;5.65;2.45;;;;;;;;;;5069945;28;20139;-72
2022/10/13 10:48:31;;;;;;;4.18;2.30;;;;;;;;;;5070359;28;20072;-72
2022/10/13 10:50:57;;;;;;;7.13;2.38;;;;;;;;;;5086968;28;20116;-72
2022/10/13 10:53:30;;;;;;;5.97;2.75;;;;;;;;;;5072570;28;20048;-71
2022/10/13 10:55:57;;;;;;;4.68;3.08;;;;;;;;;;5074788;28;20032;-73
2022/10/13 10:58:22;;;;;;;8.10;2.92;;;;;;;;;;5073681;28;20040;-71
2022/10/13 11:00:53;;;;;;;6.22;2.40;;;;;;;;;;5073483;28;20036;-71
2022/10/13 11:03:34;;;;;;;5.65;2.53;;;;;;;;;;5072749;28;20202;-71
2022/10/13 11:06:02;;;;;;;7.25;2.70;;;;;;;;;;5089983;28;20067;-71
2022/10/13 11:08:33;;;;;;;6.75;2.80;;;;;;;;;;5072570;28;20077;-72
2022/10/13 11:11:18;;;;;;;9.10;2.47;;;;;;;;;;5072882;28;20556;-73
2022/10/13 11:14:03;;;;;;;4.70;2.10;;;;;;;;;;5071848;28;20047;-72
2022/10/13 11:16:38;;;;;;;6.80;2.28;;;;;;;;;;5041581;28;20047;-72
2022/10/13 11:19:44;;;;;;;5.95;2.15;;;;;;;;;;5074133;28;20036;-74
2022/10/13 11:22:11;;;;;;;7.45;2.53;;;;;;;;;;5012075;28;20040;-74
2022/10/13 11:24:39;;;;;;;9.27;2.60;;;;;;;;;;5071645;28;20040;-72
2022/10/13 11:27:14;;;;;;;4.05;2.00;;;;;;;;;;5067310;28;20417;-72
2022/10/13 11:29:44;;;;;;;5.80;2.08;;;;;;;;;;5072262;28;20839;-73
2022/10/13 11:32:31;;;;;;;4.87;2.10;;;;;;;;;;5088566;28;20039;-72
2022/10/13 11:35:03;;;;;;;6.65;2.25;;;;;;;;;;5079262;28;20060;-74
2022/10/13 11:37:41;;;;;;;3.08;2.08;;;;;;;;;;5090424;28;20028;-73
2022/10/13 11:40:06;;;;;;;6.75;2.55;;;;;;;;;;5059084;28;20486;-73
2022/10/13 11:42:42;;;;;;;4.50;2.30;;;;;;;;;;5051047;28;20058;-71
2022/10/13 11:45:11;;;;;;;7.38;2.25;;;;;;;;;;5077953;28;20024;-73
2022/10/13 11:47:55;;;;;;;5.38;1.95;;;;;;;;;;5075464;28;20039;-72
2022/10/13 11:50:27;;;;;;;4.35;2.00;;;;;;;;;;5075968;28;20043;-71
2022/10/13 11:53:04;;;;;;;8.45;2.17;;;;;;;;;;5083466;28;20040;-71
2022/10/13 11:55:51;;;;;;;8.25;2.22;;;;;;;;;;5078271;28;20136;-71
2022/10/13 11:58:18;;;;;;;3.80;2.08;;;;;;;;;;5075563;28;20037;-71
2022/10/13 12:00:54;;;;;;;5.65;1.92;;;;;;;;;;5088646;28;20482;-71
2022/10/13 12:03:22;;;;;;;10.98;2.40;;;;;;;;;;5069763;28;20232;-71
2022/10/13 12:05:49;;;;;;;4.15;2.35;;;;;;;;;;5070478;28;20036;-71
2022/10/13 12:08:14;;;;;;;7.10;2.05;;;;;;;;;;5044528;28;20044;-71
2022/10/13 12:10:40;;;;;;;5.40;2.70;;;;;;;;;;5076181;28;20434;-73
2022/10/13 12:13:19;;;;;;;5.28;2.25;;;;;;;;;;5038550;28;20757;-74
2022/10/13 12:15:45;;;;;;;5.85;2.40;;;;;;;;;;5074595;28;20397;-72
2022/10/13 12:18:32;;;;;;;11.52;2.50;;;;;;;;;;5071520;28;20190;-71
2022/10/13 12:20:58;;;;;;;7.95;2.55;;;;;;;;;;5075366;28;20040;-72
2022/10/13 12:23:24;;;;;;;5.05;2.00;;;;;;;;;;5060484;28;20029;-72
2022/10/13 12:25:56;;;;;;;3.67;2.47;;;;;;;;;;5091154;28;20130;-72
2022/10/13 12:28:24;;;;;;;7.93;3.20;;;;;;;;;;5092126;28;20094;-72
2022/10/13 12:30:52;;;;;;;4.93;2.58;;;;;;;;;;5074454;28;20040;-72
2022/10/13 12:33:21;;;;;;;5.72;2.42;;;;;;;;;;5077570;28;20044;-71
2022/10/13 12:35:47;;;;;;;4.90;2.10;;;;;;;;;;5078849;28;20097;-70
2022/10/13 12:38:17;;;;;;;6.72;2.70;;;;;;;;;;5097082;28;20044;-70
2022/10/13 12:40:43;;;;;;;5.85;2.83;;;;;;;;;;5096253;28;20048;-73
2022/10/13 12:43:13;;;;;;;9.65;2.85;;;;;;;;;;5083742;28;20063;-75
2022/10/13 12:45:39;;;;;;;7.80;2.65;;;;;;;;;;5066671;28;20142;-72
2022/10/13 12:48:05;;;;;;;8.45;3.08;;;;;;;;;;5085259;28;20123;-72
2022/10/13 12:50:34;;;;;;;7.07;2.88;;;;;;;;;;5077291;28;20059;-72
2022/10/13 12:53:02;;;;;;;;;;;;;;;;;;5087195;28;20342;-72
2022/10/13 12:55:28;;;;;;;5.25;2.33;;;;;;;;;;5082823;28;20018;-72
2022/10/13 12:57:54;;;;;;;7.00;2.50;;;;;;;;;;5064305;28;20054;-72
2022/10/13 13:00:19;;;;;;;4.13;2.38;;;;;;;;;;5058797;28;20374;-71
2022/10/13 13:03:02;;;;;;;8.52;2.53;;;;;;;;;;5085502;28;20028;-72
2022/10/13 13:05:32;;;;;;;7.53;2.80;;;;;;;;;;5081643;28;20040;-72
2022/10/13 13:08:20;;;;;;;10.82;2.92;;;;;;;;;;5060231;28;20039;-72
2022/10/13 13:10:55;;;;;;;9.98;2.80;;;;;;;;;;5073852;28;20085;-72
2022/10/13 13:13:21;;;;;;;8.50;2.80;;;;;;;;;;5078970;28;20200;-72
2022/10/13 13:15:47;;;;;;;9.13;2.50;;;;;;;;;;5081437;28;20482;-72
2022/10/13 13:18:30;;;;;;;2.85;1.80;;;;;;;;;;5082728;28;20059;-72
2022/10/13 13:20:56;;;;;;;12.40;2.90;;;;;;;;;;5050398;28;20032;-71
2022/10/13 13:23:22;;;;;;;9.52;2.60;;;;;;;;;;5058874;28;20427;-70
2022/10/13 13:26:19;;;;;;;7.95;2.60;;;;;;;;;;5079184;28;20028;-70
2022/10/13 13:28:45;;;;;;;3.92;2.40;;;;;;;;;;5048695;28;20138;-71
2022/10/13 13:31:13;;;;;;;5.43;2.30;;;;;;;;;;5078593;28;20035;-71
2022/10/13 13:33:38;;;;;;;3.55;2.20;;;;;;;;;;5067730;28;20054;-70
2022/10/13 13:36:08;;;;;;;11.23;2.40;;;;;;;;;;5077126;28;20032;-71
2022/10/13 13:38:33;;;;;;;9.80;2.40;;;;;;;;;;5072569;28;20040;-71
2022/10/13 13:40:59;;;;;;;4.72;2.00;;;;;;;;;;5081327;28;20382;-71
2022/10/13 13:43:25;;;;;;;7.05;2.28;;;;;;;;;;5068355;28;20059;-71
2022/10/13 13:45:51;;;;;;;3.90;2.10;;;;;;;;;;5079712;28;20020;-71
2022/10/13 13:48:16;;;;;;;7.80;2.60;;;;;;;;;;5080520;28;20043;-71
2022/10/13 13:50:42;;;;;;;5.90;2.25;;;;;;;;;;5078845;28;20123;-70
2022/10/13 13:53:08;;;;;;;4.40;2.08;;;;;;;;;;5083082;28;20106;-71
2022/10/13 13:55:34;;;;;;;3.40;2.15;;;;;;;;;;5052624;28;20478;-71
2022/10/13 13:58:02;;;;;;;4.13;2.10;;;;;;;;;;5094703;28;20114;-70
2022/10/13 14:00:28;;;;;;;4.85;2.95;;;;;;;;;;5053184;28;20520;-72
2022/10/13 14:02:54;;;;;;;6.30;1.90;;;;;;;;;;5054512;28;20124;-73
2022/10/13 14:05:23;;;;;;;22.52;2.67;;;;;;;;;;5081108;28;20083;-73
2022/10/13 14:07:51;;;;;;;4.93;2.15;;;;;;;;;;5078152;28;20042;-73
2022/10/13 14:10:17;;;;;;;6.82;1.65;;;;;;;;;;5061789;28;20047;-72
2022/10/13 14:12:42;;;;;;;9.60;2.03;;;;;;;;;;5076384;28;20082;-73
2022/10/13 14:15:08;;;;;;;5.97;1.80;;;;;;;;;;5079115;28;20032;-73
2022/10/13 14:17:34;;;;;;;2.25;1.58;;;;;;;;;;5080584;28;20036;-73
2022/10/13 14:20:00;;;;;;;6.10;2.10;;;;;;;;;;5064522;28;20033;-72
2022/10/13 14:22:26;;;;;;;6.32;2.20;;;;;;;;;;5087012;28;20028;-73
2022/10/13 14:24:52;;;;;;;8.60;2.58;;;;;;;;;;5071358;28;20081;-73
2022/10/13 14:27:18;;;;;;;8.38;2.22;;;;;;;;;;5077623;28;20037;-74
2022/10/13 14:29:44;;;;;;;7.22;1.90;;;;;;;;;;5080428;28;20036;-75
2022/10/13 14:32:10;;;;;;;6.60;2.20;;;;;;;;;;5076689;28;20028;-74
2022/10/13 14:34:37;;;;;;;4.55;1.90;;;;;;;;;;5053686;28;20726;-73
2022/10/13 14:37:03;;;;;;;4.85;2.05;;;;;;;;;;5073166;28;20024;-73
2022/10/13 14:39:29;;;;;;;4.15;2.22;;;;;;;;;;5061665;28;20024;-73
2022/10/13 14:41:55;;;;;;;3.92;1.70;;;;;;;;;;5081786;28;20498;-74
2022/10/13 14:44:22;;;;;;;3.47;1.77;;;;;;;;;;5071395;28;20097;-73
2022/10/13 14:46:48;;;;;;;3.28;1.60;;;;;;;;;;5092387;28;20028;-73